Falls City, Nebraska
Current Conditions -  °F | °C
As of 4:25 PM on Sunday 21 Dec 2014 (Local Time) from KFNB Reporting Station
Overcast Overcast  
Wind Chill: 36°   Ceiling: 900
Heat Index: 43°   Visibility: 9mi
Dew Point: 39°   Wind: 13mph
Humidity: 86%   Direction: 170°S
Pressure: 29.77"   Gusts: NA
Location:  40.06°N, 95.6°W
Report Text: KFNB 212225Z AUTO 17011KT 9SM OVC009 06/04 A2977 RMK AO2 T00610039
Loading
Personal Weather Stations






























Interactive Weather Map New forecast layout! Learn more

10-Day Weather Forecast

Advertisements
Track Severe Weather on mobile